sensor_id;sensor_type;location;lat;lon;timestamp;temperature;humidity
57390;DHT22;43217;52.694;6.214;2022-08-06T00:01:44;15.00;99.90
57390;DHT22;43217;52.694;6.214;2022-08-06T00:04:09;15.00;99.90
57390;DHT22;43217;52.694;6.214;2022-08-06T00:06:35;14.90;99.90
57390;DHT22;43217;52.694;6.214;2022-08-06T00:09:00;14.90;99.90
57390;DHT22;43217;52.694;6.214;2022-08-06T00:11:26;14.90;99.90
57390;DHT22;43217;52.694;6.214;2022-08-06T00:13:52;14.80;99.90
57390;DHT22;43217;52.694;6.214;2022-08-06T00:16:17;14.80;99.90
57390;DHT22;43217;52.694;6.214;2022-08-06T00:18:43;14.70;99.90
57390;DHT22;43217;52.694;6.214;2022-08-06T00:21:09;14.70;99.90
57390;DHT22;43217;52.694;6.214;2022-08-06T00:23:34;14.60;99.90
57390;DHT22;43217;52.694;6.214;2022-08-06T00:26:00;14.60;99.90
57390;DHT22;43217;52.694;6.214;2022-08-06T00:28:25;14.60;99.90
57390;DHT22;43217;52.694;6.214;2022-08-06T00:30:51;14.50;99.90
57390;DHT22;43217;52.694;6.214;2022-08-06T00:33:17;14.50;99.90
57390;DHT22;43217;52.694;6.214;2022-08-06T00:35:43;14.40;99.90
57390;DHT22;43217;52.694;6.214;2022-08-06T00:38:09;14.40;99.90
57390;DHT22;43217;52.694;6.214;2022-08-06T00:40:35;14.40;99.90
57390;DHT22;43217;52.694;6.214;2022-08-06T00:43:03;14.40;99.90
57390;DHT22;43217;52.694;6.214;2022-08-06T00:45:33;14.40;99.90
57390;DHT22;43217;52.694;6.214;2022-08-06T00:48:00;14.30;99.90
57390;DHT22;43217;52.694;6.214;2022-08-06T00:50:26;14.30;99.90
57390;DHT22;43217;52.694;6.214;2022-08-06T00:52:52;14.30;99.90
57390;DHT22;43217;52.694;6.214;2022-08-06T00:55:18;14.30;99.90
57390;DHT22;43217;52.694;6.214;2022-08-06T00:57:45;14.20;99.90
57390;DHT22;43217;52.694;6.214;2022-08-06T01:00:12;14.20;99.90
57390;DHT22;43217;52.694;6.214;2022-08-06T01:02:38;14.20;99.90
57390;DHT22;43217;52.694;6.214;2022-08-06T01:05:04;14.10;99.90
57390;DHT22;43217;52.694;6.214;2022-08-06T01:07:30;14.10;99.90
57390;DHT22;43217;52.694;6.214;2022-08-06T01:09:56;14.10;99.90
57390;DHT22;43217;52.694;6.214;2022-08-06T01:12:21;14.00;99.90
57390;DHT22;43217;52.694;6.214;2022-08-06T01:14:47;14.00;99.90
57390;DHT22;43217;52.694;6.214;2022-08-06T01:20:29;14.00;99.90
57390;DHT22;43217;52.694;6.214;2022-08-06T01:23:36;13.90;99.90
57390;DHT22;43217;52.694;6.214;2022-08-06T01:26:39;13.90;99.90
57390;DHT22;43217;52.694;6.214;2022-08-06T01:29:20;13.80;99.90
57390;DHT22;43217;52.694;6.214;2022-08-06T01:32:05;13.80;99.90
57390;DHT22;43217;52.694;6.214;2022-08-06T01:34:39;13.80;99.90
57390;DHT22;43217;52.694;6.214;2022-08-06T01:37:15;13.80;99.90
57390;DHT22;43217;52.694;6.214;2022-08-06T01:39:42;13.70;99.90
57390;DHT22;43217;52.694;6.214;2022-08-06T01:42:11;13.60;99.90
57390;DHT22;43217;52.694;6.214;2022-08-06T01:44:41;13.50;99.90
57390;DHT22;43217;52.694;6.214;2022-08-06T01:47:12;13.50;99.90
57390;DHT22;43217;52.694;6.214;2022-08-06T01:49:39;13.40;99.90
57390;DHT22;43217;52.694;6.214;2022-08-06T01:52:07;13.30;99.90
57390;DHT22;43217;52.694;6.214;2022-08-06T01:54:39;13.20;99.90
57390;DHT22;43217;52.694;6.214;2022-08-06T01:57:07;13.10;99.90
57390;DHT22;43217;52.694;6.214;2022-08-06T01:59:37;13.00;99.90
57390;DHT22;43217;52.694;6.214;2022-08-06T02:02:06;12.90;99.90
57390;DHT22;43217;52.694;6.214;2022-08-06T02:04:37;12.80;99.90
57390;DHT22;43217;52.694;6.214;2022-08-06T02:07:06;12.70;99.90
57390;DHT22;43217;52.694;6.214;2022-08-06T02:09:34;12.70;99.90
57390;DHT22;43217;52.694;6.214;2022-08-06T02:12:04;12.70;99.90
57390;DHT22;43217;52.694;6.214;2022-08-06T02:14:35;12.70;99.90
57390;DHT22;43217;52.694;6.214;2022-08-06T02:17:03;12.70;99.90
57390;DHT22;43217;52.694;6.214;2022-08-06T02:19:31;12.70;99.90
57390;DHT22;43217;52.694;6.214;2022-08-06T02:21:58;12.80;99.90
57390;DHT22;43217;52.694;6.214;2022-08-06T02:24:25;12.80;99.90
57390;DHT22;43217;52.694;6.214;2022-08-06T02:26:53;12.70;99.90
57390;DHT22;43217;52.694;6.214;2022-08-06T02:29:20;12.80;99.90
57390;DHT22;43217;52.694;6.214;2022-08-06T02:31:46;12.80;99.90
57390;DHT22;43217;52.694;6.214;2022-08-06T02:34:12;12.70;99.90
57390;DHT22;43217;52.694;6.214;2022-08-06T02:36:47;12.70;99.90
57390;DHT22;43217;52.694;6.214;2022-08-06T02:39:46;12.70;99.90
57390;DHT22;43217;52.694;6.214;2022-08-06T02:42:24;12.70;99.90
57390;DHT22;43217;52.694;6.214;2022-08-06T02:45:03;12.60;99.90
57390;DHT22;43217;52.694;6.214;2022-08-06T02:50:41;12.60;99.90
57390;DHT22;43217;52.694;6.214;2022-08-06T02:53:09;12.70;99.90
57390;DHT22;43217;52.694;6.214;2022-08-06T02:55:38;12.70;99.90
57390;DHT22;43217;52.694;6.214;2022-08-06T02:58:19;12.60;99.90
57390;DHT22;43217;52.694;6.214;2022-08-06T03:00:48;12.70;99.90
57390;DHT22;43217;52.694;6.214;2022-08-06T03:03:16;12.70;99.90
57390;DHT22;43217;52.694;6.214;2022-08-06T03:05:44;12.60;99.90
57390;DHT22;43217;52.694;6.214;2022-08-06T03:08:13;12.60;99.90
57390;DHT22;43217;52.694;6.214;2022-08-06T03:10:40;12.60;99.90
57390;DHT22;43217;52.694;6.214;2022-08-06T03:13:07;12.50;99.90
57390;DHT22;43217;52.694;6.214;2022-08-06T03:15:34;12.50;99.90
57390;DHT22;43217;52.694;6.214;2022-08-06T03:18:03;12.40;99.90
57390;DHT22;43217;52.694;6.214;2022-08-06T03:20:30;12.30;99.90
57390;DHT22;43217;52.694;6.214;2022-08-06T03:22:58;12.30;99.90
57390;DHT22;43217;52.694;6.214;2022-08-06T03:25:26;12.20;99.90
57390;DHT22;43217;52.694;6.214;2022-08-06T03:27:53;12.20;99.90
57390;DHT22;43217;52.694;6.214;2022-08-06T03:30:20;12.20;99.90
57390;DHT22;43217;52.694;6.214;2022-08-06T03:32:47;12.20;99.90
57390;DHT22;43217;52.694;6.214;2022-08-06T03:35:14;12.10;99.90
57390;DHT22;43217;52.694;6.214;2022-08-06T03:37:41;12.10;99.90
57390;DHT22;43217;52.694;6.214;2022-08-06T03:40:09;12.10;99.90
57390;DHT22;43217;52.694;6.214;2022-08-06T03:42:35;12.10;99.90
57390;DHT22;43217;52.694;6.214;2022-08-06T03:45:01;12.20;99.90
57390;DHT22;43217;52.694;6.214;2022-08-06T03:47:30;12.20;99.90
57390;DHT22;43217;52.694;6.214;2022-08-06T03:50:15;12.20;99.90
57390;DHT22;43217;52.694;6.214;2022-08-06T03:52:52;12.20;99.90
57390;DHT22;43217;52.694;6.214;2022-08-06T03:55:20;12.20;99.90
57390;DHT22;43217;52.694;6.214;2022-08-06T03:57:49;12.20;99.90
57390;DHT22;43217;52.694;6.214;2022-08-06T04:00:19;12.20;99.90
57390;DHT22;43217;52.694;6.214;2022-08-06T04:02:50;12.20;99.90
57390;DHT22;43217;52.694;6.214;2022-08-06T04:05:22;12.20;99.90
57390;DHT22;43217;52.694;6.214;2022-08-06T04:07:52;12.20;99.90
57390;DHT22;43217;52.694;6.214;2022-08-06T04:10:19;12.10;99.90
57390;DHT22;43217;52.694;6.214;2022-08-06T04:12:46;12.10;99.90
57390;DHT22;43217;52.694;6.214;2022-08-06T04:15:13;12.10;99.90
57390;DHT22;43217;52.694;6.214;2022-08-06T04:17:41;12.00;99.90
57390;DHT22;43217;52.694;6.214;2022-08-06T04:20:09;12.00;99.90
57390;DHT22;43217;52.694;6.214;2022-08-06T04:22:35;12.00;99.90
57390;DHT22;43217;52.694;6.214;2022-08-06T04:25:03;12.00;99.90
57390;DHT22;43217;52.694;6.214;2022-08-06T04:27:29;12.00;99.90
57390;DHT22;43217;52.694;6.214;2022-08-06T04:29:56;12.00;99.90
57390;DHT22;43217;52.694;6.214;2022-08-06T04:32:24;12.00;99.90
57390;DHT22;43217;52.694;6.214;2022-08-06T04:34:52;12.10;99.90
57390;DHT22;43217;52.694;6.214;2022-08-06T04:37:18;12.20;99.90
57390;DHT22;43217;52.694;6.214;2022-08-06T04:39:45;12.30;99.90
57390;DHT22;43217;52.694;6.214;2022-08-06T04:42:11;12.30;99.90
57390;DHT22;43217;52.694;6.214;2022-08-06T04:44:37;12.40;99.90
57390;DHT22;43217;52.694;6.214;2022-08-06T04:47:04;12.40;99.90
57390;DHT22;43217;52.694;6.214;2022-08-06T04:49:30;12.60;99.90
57390;DHT22;43217;52.694;6.214;2022-08-06T04:51:55;12.60;99.90
57390;DHT22;43217;52.694;6.214;2022-08-06T04:54:21;12.70;99.90
57390;DHT22;43217;52.694;6.214;2022-08-06T04:56:47;12.80;99.90
57390;DHT22;43217;52.694;6.214;2022-08-06T04:59:12;12.90;99.90
57390;DHT22;43217;52.694;6.214;2022-08-06T05:01:38;12.90;99.90
57390;DHT22;43217;52.694;6.214;2022-08-06T05:04:04;13.10;99.90
57390;DHT22;43217;52.694;6.214;2022-08-06T05:06:49;13.10;99.90
57390;DHT22;43217;52.694;6.214;2022-08-06T05:09:22;13.20;99.90
57390;DHT22;43217;52.694;6.214;2022-08-06T05:11:52;13.20;99.90
57390;DHT22;43217;52.694;6.214;2022-08-06T05:14:24;13.30;99.90
57390;DHT22;43217;52.694;6.214;2022-08-06T05:16:52;13.40;99.90
57390;DHT22;43217;52.694;6.214;2022-08-06T05:19:35;13.50;99.90
57390;DHT22;43217;52.694;6.214;2022-08-06T05:22:02;13.70;99.90
57390;DHT22;43217;52.694;6.214;2022-08-06T05:24:29;13.70;99.90
57390;DHT22;43217;52.694;6.214;2022-08-06T05:26:55;13.80;99.90
57390;DHT22;43217;52.694;6.214;2022-08-06T05:29:21;13.80;99.90
57390;DHT22;43217;52.694;6.214;2022-08-06T05:31:47;13.80;99.90
57390;DHT22;43217;52.694;6.214;2022-08-06T05:34:13;13.80;99.90
57390;DHT22;43217;52.694;6.214;2022-08-06T05:36:39;13.80;99.90
57390;DHT22;43217;52.694;6.214;2022-08-06T05:39:05;13.80;99.90
57390;DHT22;43217;52.694;6.214;2022-08-06T05:41:31;13.70;99.90
57390;DHT22;43217;52.694;6.214;2022-08-06T05:44:00;13.60;99.90
57390;DHT22;43217;52.694;6.214;2022-08-06T05:46:31;13.60;99.90
57390;DHT22;43217;52.694;6.214;2022-08-06T05:49:03;13.60;99.90
57390;DHT22;43217;52.694;6.214;2022-08-06T05:56:46;13.60;99.90
57390;DHT22;43217;52.694;6.214;2022-08-06T05:59:35;13.80;99.90
57390;DHT22;43217;52.694;6.214;2022-08-06T06:02:01;13.90;99.90
57390;DHT22;43217;52.694;6.214;2022-08-06T06:04:29;14.10;99.90
57390;DHT22;43217;52.694;6.214;2022-08-06T06:06:55;14.20;99.90
57390;DHT22;43217;52.694;6.214;2022-08-06T06:09:21;14.40;99.90
57390;DHT22;43217;52.694;6.214;2022-08-06T06:11:47;14.60;99.90
57390;DHT22;43217;52.694;6.214;2022-08-06T06:17:24;14.90;99.90
57390;DHT22;43217;52.694;6.214;2022-08-06T06:22:46;15.30;99.90
57390;DHT22;43217;52.694;6.214;2022-08-06T06:25:29;15.40;99.90
57390;DHT22;43217;52.694;6.214;2022-08-06T06:30:42;15.70;99.90
57390;DHT22;43217;52.694;6.214;2022-08-06T06:33:19;15.90;99.90
57390;DHT22;43217;52.694;6.214;2022-08-06T06:35:53;16.00;99.90
57390;DHT22;43217;52.694;6.214;2022-08-06T06:38:25;16.30;99.90
57390;DHT22;43217;52.694;6.214;2022-08-06T06:41:32;16.50;99.90
57390;DHT22;43217;52.694;6.214;2022-08-06T06:44:17;17.10;99.90
57390;DHT22;43217;52.694;6.214;2022-08-06T06:46:56;18.00;99.90
57390;DHT22;43217;52.694;6.214;2022-08-06T06:49:49;18.90;99.90
57390;DHT22;43217;52.694;6.214;2022-08-06T06:52:26;20.10;99.90
57390;DHT22;43217;52.694;6.214;2022-08-06T06:57:31;21.20;99.90
57390;DHT22;43217;52.694;6.214;2022-08-06T07:00:01;21.60;99.90
57390;DHT22;43217;52.694;6.214;2022-08-06T07:02:30;22.10;99.90
57390;DHT22;43217;52.694;6.214;2022-08-06T07:04:57;22.40;99.90
57390;DHT22;43217;52.694;6.214;2022-08-06T07:07:33;22.80;97.20
57390;DHT22;43217;52.694;6.214;2022-08-06T07:09:59;23.10;98.40
57390;DHT22;43217;52.694;6.214;2022-08-06T07:12:28;23.60;94.00
57390;DHT22;43217;52.694;6.214;2022-08-06T07:14:55;24.30;92.10
57390;DHT22;43217;52.694;6.214;2022-08-06T07:17:22;24.90;84.80
57390;DHT22;43217;52.694;6.214;2022-08-06T07:19:51;25.70;79.60
57390;DHT22;43217;52.694;6.214;2022-08-06T07:22:20;26.30;74.60
57390;DHT22;43217;52.694;6.214;2022-08-06T07:24:47;26.80;71.70
57390;DHT22;43217;52.694;6.214;2022-08-06T07:27:14;27.40;69.10
57390;DHT22;43217;52.694;6.214;2022-08-06T07:29:40;28.00;66.00
57390;DHT22;43217;52.694;6.214;2022-08-06T07:32:07;28.10;62.00
57390;DHT22;43217;52.694;6.214;2022-08-06T07:34:34;28.20;62.10
57390;DHT22;43217;52.694;6.214;2022-08-06T07:37:01;28.40;60.80
57390;DHT22;43217;52.694;6.214;2022-08-06T07:39:30;28.40;58.80
57390;DHT22;43217;52.694;6.214;2022-08-06T07:42:00;28.60;58.60
57390;DHT22;43217;52.694;6.214;2022-08-06T07:44:27;28.90;57.60
57390;DHT22;43217;52.694;6.214;2022-08-06T07:46:57;29.00;56.10
57390;DHT22;43217;52.694;6.214;2022-08-06T07:49:26;29.10;56.00
57390;DHT22;43217;52.694;6.214;2022-08-06T07:51:55;29.10;55.70
57390;DHT22;43217;52.694;6.214;2022-08-06T07:54:22;29.40;55.40
57390;DHT22;43217;52.694;6.214;2022-08-06T07:56:50;29.30;54.70
57390;DHT22;43217;52.694;6.214;2022-08-06T07:59:17;28.40;54.60
57390;DHT22;43217;52.694;6.214;2022-08-06T08:01:43;27.50;56.20
57390;DHT22;43217;52.694;6.214;2022-08-06T08:04:09;27.50;56.80
57390;DHT22;43217;52.694;6.214;2022-08-06T08:06:57;28.10;55.90
57390;DHT22;43217;52.694;6.214;2022-08-06T08:09:24;28.80;54.50
57390;DHT22;43217;52.694;6.214;2022-08-06T08:11:52;29.50;53.60
57390;DHT22;43217;52.694;6.214;2022-08-06T08:14:21;29.80;52.70
57390;DHT22;43217;52.694;6.214;2022-08-06T08:16:48;30.10;51.90
57390;DHT22;43217;52.694;6.214;2022-08-06T08:19:27;30.50;51.70
57390;DHT22;43217;52.694;6.214;2022-08-06T08:21:58;30.60;49.20
57390;DHT22;43217;52.694;6.214;2022-08-06T08:24:25;29.80;49.90
57390;DHT22;43217;52.694;6.214;2022-08-06T08:26:51;29.20;51.00
57390;DHT22;43217;52.694;6.214;2022-08-06T08:29:17;29.40;51.70
57390;DHT22;43217;52.694;6.214;2022-08-06T08:31:42;29.70;51.30
57390;DHT22;43217;52.694;6.214;2022-08-06T08:34:08;30.10;51.40
57390;DHT22;43217;52.694;6.214;2022-08-06T08:36:34;30.30;50.90
57390;DHT22;43217;52.694;6.214;2022-08-06T08:38:59;30.30;50.40
57390;DHT22;43217;52.694;6.214;2022-08-06T08:41:31;30.60;50.60
57390;DHT22;43217;52.694;6.214;2022-08-06T08:44:03;30.60;50.20
57390;DHT22;43217;52.694;6.214;2022-08-06T08:46:37;30.70;50.90
57390;DHT22;43217;52.694;6.214;2022-08-06T08:49:04;30.90;50.20
57390;DHT22;43217;52.694;6.214;2022-08-06T08:51:39;31.00;49.60
57390;DHT22;43217;52.694;6.214;2022-08-06T08:54:08;30.60;46.50
57390;DHT22;43217;52.694;6.214;2022-08-06T08:56:34;30.50;47.40
57390;DHT22;43217;52.694;6.214;2022-08-06T08:59:01;30.30;47.70
57390;DHT22;43217;52.694;6.214;2022-08-06T09:01:28;30.50;48.60
57390;DHT22;43217;52.694;6.214;2022-08-06T09:03:54;30.70;48.70
57390;DHT22;43217;52.694;6.214;2022-08-06T09:06:21;31.20;47.90
57390;DHT22;43217;52.694;6.214;2022-08-06T09:08:47;31.60;47.20
57390;DHT22;43217;52.694;6.214;2022-08-06T09:11:14;31.90;47.10
57390;DHT22;43217;52.694;6.214;2022-08-06T09:13:40;31.70;46.20
57390;DHT22;43217;52.694;6.214;2022-08-06T09:16:05;31.10;46.20
57390;DHT22;43217;52.694;6.214;2022-08-06T09:18:31;30.20;46.80
57390;DHT22;43217;52.694;6.214;2022-08-06T09:20:59;29.20;47.00
57390;DHT22;43217;52.694;6.214;2022-08-06T09:23:25;28.80;48.20
57390;DHT22;43217;52.694;6.214;2022-08-06T09:25:52;29.00;48.40
57390;DHT22;43217;52.694;6.214;2022-08-06T09:28:38;29.30;48.40
57390;DHT22;43217;52.694;6.214;2022-08-06T09:33:36;29.80;47.40
57390;DHT22;43217;52.694;6.214;2022-08-06T09:36:06;29.70;47.30
57390;DHT22;43217;52.694;6.214;2022-08-06T09:38:51;29.70;46.50
57390;DHT22;43217;52.694;6.214;2022-08-06T09:41:19;29.30;47.10
57390;DHT22;43217;52.694;6.214;2022-08-06T09:43:46;29.20;47.20
57390;DHT22;43217;52.694;6.214;2022-08-06T09:46:14;29.10;47.50
57390;DHT22;43217;52.694;6.214;2022-08-06T09:48:58;29.00;47.10
57390;DHT22;43217;52.694;6.214;2022-08-06T09:51:25;28.70;46.30
57390;DHT22;43217;52.694;6.214;2022-08-06T09:53:58;28.20;49.10
57390;DHT22;43217;52.694;6.214;2022-08-06T09:56:28;27.70;49.30
57390;DHT22;43217;52.694;6.214;2022-08-06T09:59:03;27.20;49.90
57390;DHT22;43217;52.694;6.214;2022-08-06T10:01:29;26.80;50.60
57390;DHT22;43217;52.694;6.214;2022-08-06T10:03:57;26.50;51.50
57390;DHT22;43217;52.694;6.214;2022-08-06T10:06:23;26.20;51.70
57390;DHT22;43217;52.694;6.214;2022-08-06T10:09:05;25.90;52.40
57390;DHT22;43217;52.694;6.214;2022-08-06T10:11:34;25.80;52.80
57390;DHT22;43217;52.694;6.214;2022-08-06T10:14:00;25.50;52.50
57390;DHT22;43217;52.694;6.214;2022-08-06T10:16:25;25.30;52.80
57390;DHT22;43217;52.694;6.214;2022-08-06T10:18:56;25.20;53.20
57390;DHT22;43217;52.694;6.214;2022-08-06T10:21:27;24.90;53.10
57390;DHT22;43217;52.694;6.214;2022-08-06T10:23:58;24.70;53.20
57390;DHT22;43217;52.694;6.214;2022-08-06T10:26:30;24.70;54.10
57390;DHT22;43217;52.694;6.214;2022-08-06T10:29:05;24.60;54.00
57390;DHT22;43217;52.694;6.214;2022-08-06T10:31:33;24.70;53.40
57390;DHT22;43217;52.694;6.214;2022-08-06T10:34:22;24.60;53.80
57390;DHT22;43217;52.694;6.214;2022-08-06T10:36:56;24.80;55.00
57390;DHT22;43217;52.694;6.214;2022-08-06T10:39:27;24.80;53.00
57390;DHT22;43217;52.694;6.214;2022-08-06T10:41:54;24.80;51.20
57390;DHT22;43217;52.694;6.214;2022-08-06T10:44:22;24.90;50.30
57390;DHT22;43217;52.694;6.214;2022-08-06T10:46:53;24.90;49.80
57390;DHT22;43217;52.694;6.214;2022-08-06T10:49:19;25.00;48.70
57390;DHT22;43217;52.694;6.214;2022-08-06T10:51:50;25.10;49.30
57390;DHT22;43217;52.694;6.214;2022-08-06T10:54:16;25.30;50.30
57390;DHT22;43217;52.694;6.214;2022-08-06T10:56:42;25.30;49.60
57390;DHT22;43217;52.694;6.214;2022-08-06T10:59:08;25.30;51.00
57390;DHT22;43217;52.694;6.214;2022-08-06T11:04:46;25.20;53.10
57390;DHT22;43217;52.694;6.214;2022-08-06T11:12:56;24.60;54.50
57390;DHT22;43217;52.694;6.214;2022-08-06T11:15:23;24.50;54.50
57390;DHT22;43217;52.694;6.214;2022-08-06T11:17:54;24.30;55.10
57390;DHT22;43217;52.694;6.214;2022-08-06T11:23:22;24.10;55.90
57390;DHT22;43217;52.694;6.214;2022-08-06T11:25:50;24.10;55.30
57390;DHT22;43217;52.694;6.214;2022-08-06T11:31:07;24.00;56.90
57390;DHT22;43217;52.694;6.214;2022-08-06T11:36:09;24.00;56.20
57390;DHT22;43217;52.694;6.214;2022-08-06T11:41:28;24.10;56.20
57390;DHT22;43217;52.694;6.214;2022-08-06T11:46:35;24.30;56.00
57390;DHT22;43217;52.694;6.214;2022-08-06T11:59:24;24.60;56.60
57390;DHT22;43217;52.694;6.214;2022-08-06T12:01:51;24.50;56.40
57390;DHT22;43217;52.694;6.214;2022-08-06T12:12:46;24.90;54.80
57390;DHT22;43217;52.694;6.214;2022-08-06T12:17:38;24.80;54.40
57390;DHT22;43217;52.694;6.214;2022-08-06T12:20:05;24.90;54.30
57390;DHT22;43217;52.694;6.214;2022-08-06T12:22:33;25.10;53.60
57390;DHT22;43217;52.694;6.214;2022-08-06T12:25:02;25.10;52.80
57390;DHT22;43217;52.694;6.214;2022-08-06T12:27:34;25.10;54.30
57390;DHT22;43217;52.694;6.214;2022-08-06T12:30:00;25.10;52.60
57390;DHT22;43217;52.694;6.214;2022-08-06T12:32:32;25.10;52.60
57390;DHT22;43217;52.694;6.214;2022-08-06T12:35:08;25.20;52.60
57390;DHT22;43217;52.694;6.214;2022-08-06T12:37:39;25.10;53.80
57390;DHT22;43217;52.694;6.214;2022-08-06T12:40:18;25.00;54.10
57390;DHT22;43217;52.694;6.214;2022-08-06T12:43:13;24.90;53.90
57390;DHT22;43217;52.694;6.214;2022-08-06T12:45:37;24.60;53.90
57390;DHT22;43217;52.694;6.214;2022-08-06T12:48:07;24.30;54.60
57390;DHT22;43217;52.694;6.214;2022-08-06T12:50:35;24.20;55.00
57390;DHT22;43217;52.694;6.214;2022-08-06T12:55:46;24.10;55.70
57390;DHT22;43217;52.694;6.214;2022-08-06T12:58:15;24.10;56.10
57390;DHT22;43217;52.694;6.214;2022-08-06T13:00:42;24.00;56.10
57390;DHT22;43217;52.694;6.214;2022-08-06T13:03:12;23.90;55.50
57390;DHT22;43217;52.694;6.214;2022-08-06T13:05:38;23.90;55.70
57390;DHT22;43217;52.694;6.214;2022-08-06T13:08:06;24.00;55.70
57390;DHT22;43217;52.694;6.214;2022-08-06T13:10:32;24.10;55.50
57390;DHT22;43217;52.694;6.214;2022-08-06T13:13:03;24.20;54.60
57390;DHT22;43217;52.694;6.214;2022-08-06T13:15:30;24.30;54.40
57390;DHT22;43217;52.694;6.214;2022-08-06T13:18:16;24.20;54.40
57390;DHT22;43217;52.694;6.214;2022-08-06T13:20:44;24.00;54.50
57390;DHT22;43217;52.694;6.214;2022-08-06T13:23:12;24.00;54.70
57390;DHT22;43217;52.694;6.214;2022-08-06T13:25:41;24.10;54.20
57390;DHT22;43217;52.694;6.214;2022-08-06T13:28:15;24.10;54.30
57390;DHT22;43217;52.694;6.214;2022-08-06T13:30:45;24.20;53.80
57390;DHT22;43217;52.694;6.214;2022-08-06T13:33:15;24.30;53.20
57390;DHT22;43217;52.694;6.214;2022-08-06T13:35:43;24.30;54.10
57390;DHT22;43217;52.694;6.214;2022-08-06T13:38:09;24.40;54.00
57390;DHT22;43217;52.694;6.214;2022-08-06T13:43:09;24.60;53.90
57390;DHT22;43217;52.694;6.214;2022-08-06T13:45:35;24.60;53.60
57390;DHT22;43217;52.694;6.214;2022-08-06T13:48:07;24.50;53.10
57390;DHT22;43217;52.694;6.214;2022-08-06T13:50:44;24.50;52.50
57390;DHT22;43217;52.694;6.214;2022-08-06T13:53:11;24.50;52.90
57390;DHT22;43217;52.694;6.214;2022-08-06T13:55:38;24.40;52.80
57390;DHT22;43217;52.694;6.214;2022-08-06T13:58:07;24.40;53.70
57390;DHT22;43217;52.694;6.214;2022-08-06T14:00:36;24.30;53.10
57390;DHT22;43217;52.694;6.214;2022-08-06T14:03:03;24.40;52.80
57390;DHT22;43217;52.694;6.214;2022-08-06T14:05:29;24.30;52.90
57390;DHT22;43217;52.694;6.214;2022-08-06T14:07:55;24.30;53.00
57390;DHT22;43217;52.694;6.214;2022-08-06T14:10:21;24.20;53.20
57390;DHT22;43217;52.694;6.214;2022-08-06T14:12:47;24.20;52.90
57390;DHT22;43217;52.694;6.214;2022-08-06T14:15:33;24.20;52.20
57390;DHT22;43217;52.694;6.214;2022-08-06T14:17:59;24.10;52.00
57390;DHT22;43217;52.694;6.214;2022-08-06T14:20:25;24.10;52.30
57390;DHT22;43217;52.694;6.214;2022-08-06T14:22:52;24.30;52.50
57390;DHT22;43217;52.694;6.214;2022-08-06T14:25:17;24.30;52.30
57390;DHT22;43217;52.694;6.214;2022-08-06T14:27:43;24.20;53.30
57390;DHT22;43217;52.694;6.214;2022-08-06T14:30:09;24.20;53.80
57390;DHT22;43217;52.694;6.214;2022-08-06T14:32:35;24.10;54.00
57390;DHT22;43217;52.694;6.214;2022-08-06T14:35:00;24.10;54.10
57390;DHT22;43217;52.694;6.214;2022-08-06T14:37:28;24.00;54.80
57390;DHT22;43217;52.694;6.214;2022-08-06T14:39:54;24.00;53.80
57390;DHT22;43217;52.694;6.214;2022-08-06T14:42:20;24.00;53.60
57390;DHT22;43217;52.694;6.214;2022-08-06T14:45:04;23.90;53.30
57390;DHT22;43217;52.694;6.214;2022-08-06T14:47:32;23.70;52.70
57390;DHT22;43217;52.694;6.214;2022-08-06T14:49:58;23.60;53.80
57390;DHT22;43217;52.694;6.214;2022-08-06T14:52:24;23.60;54.40
57390;DHT22;43217;52.694;6.214;2022-08-06T14:54:50;23.70;54.00
57390;DHT22;43217;52.694;6.214;2022-08-06T14:57:15;23.70;53.80
57390;DHT22;43217;52.694;6.214;2022-08-06T14:59:41;23.80;53.70
57390;DHT22;43217;52.694;6.214;2022-08-06T15:02:07;23.90;53.60
57390;DHT22;43217;52.694;6.214;2022-08-06T15:04:33;23.90;52.90
57390;DHT22;43217;52.694;6.214;2022-08-06T15:06:59;24.00;53.40
57390;DHT22;43217;52.694;6.214;2022-08-06T15:09:26;24.10;53.90
57390;DHT22;43217;52.694;6.214;2022-08-06T15:11:52;24.30;54.00
57390;DHT22;43217;52.694;6.214;2022-08-06T15:14:18;24.30;53.90
57390;DHT22;43217;52.694;6.214;2022-08-06T15:16:43;24.30;53.20
57390;DHT22;43217;52.694;6.214;2022-08-06T15:19:09;24.30;52.90
57390;DHT22;43217;52.694;6.214;2022-08-06T15:21:35;24.20;53.00
57390;DHT22;43217;52.694;6.214;2022-08-06T15:24:00;24.20;52.90
57390;DHT22;43217;52.694;6.214;2022-08-06T15:26:26;24.20;52.80
57390;DHT22;43217;52.694;6.214;2022-08-06T15:28:53;24.10;52.20
57390;DHT22;43217;52.694;6.214;2022-08-06T15:31:19;24.10;52.30
57390;DHT22;43217;52.694;6.214;2022-08-06T15:33:46;24.00;52.00
57390;DHT22;43217;52.694;6.214;2022-08-06T15:36:12;23.90;52.50
57390;DHT22;43217;52.694;6.214;2022-08-06T15:38:38;24.00;52.80
57390;DHT22;43217;52.694;6.214;2022-08-06T15:41:05;23.90;53.10
57390;DHT22;43217;52.694;6.214;2022-08-06T15:43:34;23.90;53.10
57390;DHT22;43217;52.694;6.214;2022-08-06T15:46:01;23.70;53.30
57390;DHT22;43217;52.694;6.214;2022-08-06T15:48:27;23.50;53.40
57390;DHT22;43217;52.694;6.214;2022-08-06T15:50:54;23.50;53.70
57390;DHT22;43217;52.694;6.214;2022-08-06T15:53:20;23.50;54.00
57390;DHT22;43217;52.694;6.214;2022-08-06T15:55:46;23.50;54.50
57390;DHT22;43217;52.694;6.214;2022-08-06T15:58:12;23.40;54.90
57390;DHT22;43217;52.694;6.214;2022-08-06T16:00:39;23.50;54.30
57390;DHT22;43217;52.694;6.214;2022-08-06T16:03:07;23.50;54.20
57390;DHT22;43217;52.694;6.214;2022-08-06T16:05:33;23.40;54.10
57390;DHT22;43217;52.694;6.214;2022-08-06T16:07:59;23.30;54.30
57390;DHT22;43217;52.694;6.214;2022-08-06T16:10:25;23.30;54.50
57390;DHT22;43217;52.694;6.214;2022-08-06T16:12:51;23.30;54.80
57390;DHT22;43217;52.694;6.214;2022-08-06T16:15:17;23.40;54.60
57390;DHT22;43217;52.694;6.214;2022-08-06T16:17:43;23.40;54.20
57390;DHT22;43217;52.694;6.214;2022-08-06T16:20:09;23.40;54.40
57390;DHT22;43217;52.694;6.214;2022-08-06T16:22:35;23.40;54.80
57390;DHT22;43217;52.694;6.214;2022-08-06T16:25:00;23.30;54.60
57390;DHT22;43217;52.694;6.214;2022-08-06T16:27:26;23.30;55.10
57390;DHT22;43217;52.694;6.214;2022-08-06T16:29:51;23.20;54.20
57390;DHT22;43217;52.694;6.214;2022-08-06T16:32:17;23.10;54.50
57390;DHT22;43217;52.694;6.214;2022-08-06T16:34:43;23.10;54.60
57390;DHT22;43217;52.694;6.214;2022-08-06T16:37:10;23.10;54.90
57390;DHT22;43217;52.694;6.214;2022-08-06T16:39:35;23.10;54.90
57390;DHT22;43217;52.694;6.214;2022-08-06T16:42:06;23.00;54.60
57390;DHT22;43217;52.694;6.214;2022-08-06T16:44:34;23.00;55.00
57390;DHT22;43217;52.694;6.214;2022-08-06T16:47:00;23.00;55.00
57390;DHT22;43217;52.694;6.214;2022-08-06T16:49:26;23.00;54.80
57390;DHT22;43217;52.694;6.214;2022-08-06T16:51:51;23.00;55.10
57390;DHT22;43217;52.694;6.214;2022-08-06T16:54:19;22.90;54.90
57390;DHT22;43217;52.694;6.214;2022-08-06T16:56:44;22.80;54.50